createdAt,value
2022-11-07T00:00:16.650Z,100505.03
2022-11-07T00:10:26.289Z,100498.06
2022-11-07T00:20:28.143Z,100500.00
2022-11-07T00:30:29.865Z,100524.13
2022-11-07T00:40:57.079Z,100535.50
2022-11-07T00:51:25.454Z,100533.06
2022-11-07T01:01:32.941Z,100517.66
2022-11-07T01:11:39.358Z,100518.75
2022-11-07T01:21:45.114Z,100508.28
2022-11-07T01:31:47.740Z,100513.47
2022-11-07T01:41:49.479Z,100521.31
2022-11-07T01:52:19.045Z,100523.06
2022-11-07T02:02:27.506Z,100520.50
2022-11-07T02:12:29.481Z,100516.31
2022-11-07T02:22:52.067Z,100525.81
2022-11-07T02:32:57.212Z,100517.19
2022-11-07T02:43:00.323Z,100512.06
2022-11-07T02:53:02.139Z,100517.16
2022-11-07T03:03:04.804Z,100510.28
2022-11-07T03:13:06.633Z,100509.59
2022-11-07T03:23:10.822Z,100496.59
2022-11-07T03:33:14.780Z,100511.34
2022-11-07T03:43:17.293Z,100503.72
2022-11-07T03:53:25.941Z,100517.47
2022-11-07T04:03:28.824Z,100522.53
2022-11-07T04:13:49.024Z,100527.59
2022-11-07T04:23:53.992Z,100550.81
2022-11-07T04:33:55.623Z,100533.69
2022-11-07T04:43:59.792Z,100538.09
2022-11-07T04:54:02.504Z,100536.47
2022-11-07T05:04:13.420Z,100508.09
2022-11-07T05:14:15.500Z,100515.00
2022-11-07T05:24:19.300Z,100541.56
2022-11-07T05:34:20.991Z,100539.03
2022-11-07T05:44:23.833Z,100537.28
2022-11-07T05:54:28.010Z,100556.22
2022-11-07T06:04:29.863Z,100589.03
2022-11-07T06:14:34.530Z,100581.28
2022-11-07T06:24:37.209Z,100587.38
2022-11-07T06:34:50.257Z,100629.50
2022-11-07T06:44:52.041Z,100615.78
2022-11-07T06:54:56.808Z,100642.66
2022-11-07T07:05:03.732Z,100644.34
2022-11-07T07:15:07.343Z,100653.88
2022-11-07T07:25:12.175Z,100657.31
2022-11-07T07:35:14.429Z,100653.03
2022-11-07T07:45:25.626Z,100656.59
2022-11-07T07:55:27.287Z,100662.69
2022-11-07T08:05:30.409Z,100666.09
2022-11-07T08:15:33.303Z,100663.59
2022-11-07T08:25:37.495Z,100669.66
2022-11-07T08:35:42.967Z,100674.81
2022-11-07T08:45:48.040Z,100674.75
2022-11-07T08:55:50.130Z,100679.94
2022-11-07T09:05:51.860Z,100692.00
2022-11-07T09:15:58.728Z,100689.34
2022-11-07T09:26:03.813Z,100685.78
2022-11-07T09:36:06.089Z,100689.06
2022-11-07T09:46:10.786Z,100694.13
2022-11-07T09:56:13.404Z,100679.47
2022-11-07T10:06:27.245Z,100683.88
2022-11-07T10:17:00.515Z,100684.56
2022-11-07T10:27:11.543Z,100674.13
2022-11-07T10:37:13.375Z,100667.34
2022-11-07T10:47:20.855Z,100672.38
2022-11-07T10:57:23.703Z,100673.53
2022-11-07T11:07:32.904Z,100659.84
2022-11-07T11:17:35.596Z,100637.38
2022-11-07T11:27:38.865Z,100627.84
2022-11-07T11:37:49.362Z,100598.72
2022-11-07T11:48:00.530Z,100633.22
2022-11-07T11:58:31.332Z,100625.53
2022-11-07T12:08:57.822Z,100622.19
2022-11-07T12:19:38.724Z,100610.97
2022-11-07T12:29:59.874Z,100617.69
2022-11-07T12:40:39.358Z,100615.75
2022-11-07T12:50:41.989Z,100618.50
2022-11-07T13:00:45.029Z,100615.44
2022-11-07T13:10:58.415Z,100604.06
2022-11-07T13:21:05.096Z,100618.91
2022-11-07T13:31:34.725Z,100624.53
2022-11-07T13:41:37.955Z,100602.81
2022-11-07T13:51:51.677Z,100609.31
2022-11-07T14:01:58.875Z,100602.94
2022-11-07T14:12:23.609Z,100598.81
2022-11-07T14:22:31.594Z,100604.91
2022-11-07T14:32:36.786Z,100616.94
2022-11-07T14:42:38.838Z,100601.84
2022-11-07T14:53:08.778Z,100619.41
2022-11-07T15:13:54.168Z,100630.91
2022-11-07T15:24:25.166Z,100640.34
2022-11-07T15:34:52.497Z,100635.19
2022-11-07T15:46:51.582Z,100650.56
2022-11-07T15:57:05.552Z,100647.84
2022-11-07T16:07:19.945Z,100638.25
2022-11-07T16:17:22.577Z,100647.66
2022-11-07T16:27:24.299Z,100670.84
2022-11-07T16:37:26.031Z,100679.28
2022-11-07T16:47:30.481Z,100678.19
2022-11-07T16:57:37.226Z,100677.97
2022-11-07T17:07:40.947Z,100682.97
2022-11-07T17:17:44.163Z,100687.00
2022-11-07T17:27:46.664Z,100705.69
2022-11-07T17:37:51.132Z,100712.53
2022-11-07T17:47:58.685Z,100703.44
2022-11-07T17:58:02.576Z,100717.25
2022-11-07T18:08:04.836Z,100730.69
2022-11-07T18:18:10.901Z,100717.59
2022-11-07T18:28:13.532Z,100724.47
2022-11-07T18:38:17.444Z,100726.03
2022-11-07T18:48:19.714Z,100726.53
2022-11-07T18:58:24.888Z,100711.78
2022-11-07T19:08:31.396Z,100705.66
2022-11-07T19:18:46.554Z,100696.69
2022-11-07T19:29:01.464Z,100712.97
2022-11-07T19:39:05.588Z,100728.06
2022-11-07T19:49:07.747Z,100727.53
2022-11-07T19:59:11.405Z,100727.63
2022-11-07T20:09:14.167Z,100743.03
2022-11-07T20:19:22.125Z,100738.53
2022-11-07T20:29:28.777Z,100767.50
2022-11-07T20:39:31.894Z,100752.72
2022-11-07T20:49:34.330Z,100748.16
2022-11-07T20:59:36.506Z,100734.19
2022-11-07T21:09:38.520Z,100737.59
2022-11-07T21:19:41.076Z,100751.25
2022-11-07T21:29:57.075Z,100756.38
2022-11-07T21:39:59.822Z,100755.91
2022-11-07T21:50:09.469Z,100754.00
2022-11-07T22:00:25.759Z,100760.78
2022-11-07T22:10:29.638Z,100765.09
2022-11-07T22:20:32.470Z,100743.34
2022-11-07T22:30:34.061Z,100754.25
2022-11-07T22:40:35.759Z,100750.13
2022-11-07T22:50:37.679Z,100742.19
2022-11-07T23:00:39.406Z,100758.88
2022-11-07T23:10:41.821Z,100759.97
2022-11-07T23:21:09.962Z,100754.13
2022-11-07T23:31:18.321Z,100766.19
2022-11-07T23:41:22.201Z,100765.44
2022-11-07T23:51:31.826Z,100766.09
